Newtonville, Indiana
Current Conditions -  °F | °C
As of 2:35 AM on Saturday 25 Oct 2014 (Local Time) from KHNB Reporting Station
Clear Clear  
Wind Chill: 46°   Ceiling: Unl
Heat Index: 48°   Visibility: 7mi
Dew Point: 45°   Wind: 6mph
Humidity: 87%   Direction: 200°SSW
Pressure: 30.04"   Gusts: NA
Location:  37.9871°N, 86.9437°W
Report Text: KHNB 250735Z AUTO 20005KT 7SM CLR 09/07 A3004 RMK AO1
Loading
Personal Weather Stations






























Interactive Weather Map
Tropical Storm Tracking
New forecast layout! Learn more

10-Day Weather Forecast

Advertisements
Track Severe Weather on mobile